createdAt,value
2023-05-12T00:00:49.481Z,10.60
2023-05-12T00:03:36.546Z,8.40
2023-05-12T00:06:23.465Z,6.40
2023-05-12T00:09:10.226Z,6.90
2023-05-12T00:11:56.761Z,8.00
2023-05-12T00:14:43.159Z,6.20
2023-05-12T00:17:29.527Z,9.00
2023-05-12T00:20:16.024Z,6.80
2023-05-12T00:23:02.605Z,7.60
2023-05-12T00:25:49.396Z,6.00
2023-05-12T00:28:36.021Z,5.80
2023-05-12T00:31:22.396Z,8.00
2023-05-12T00:34:08.832Z,5.30
2023-05-12T00:36:55.470Z,8.00
2023-05-12T00:39:42.316Z,5.10
2023-05-12T00:42:28.825Z,8.60
2023-05-12T00:45:15.487Z,6.40
2023-05-12T00:48:03.723Z,7.50
2023-05-12T00:50:50.534Z,7.30
2023-05-12T00:53:48.559Z,8.10
2023-05-12T00:56:39.453Z,7.10
2023-05-12T00:59:29.721Z,5.20
2023-05-12T01:02:16.446Z,6.90
2023-05-12T01:05:03.817Z,6.20
2023-05-12T01:07:50.591Z,7.90
2023-05-12T01:10:44.074Z,7.70
2023-05-12T01:13:30.557Z,5.50
2023-05-12T01:16:21.041Z,6.30
2023-05-12T01:21:58.987Z,6.00
2023-05-12T01:24:50.378Z,5.50
2023-05-12T01:27:39.794Z,7.30
2023-05-12T01:30:28.317Z,7.30
2023-05-12T01:33:14.897Z,6.60
2023-05-12T01:36:01.845Z,6.80
2023-05-12T01:38:48.498Z,6.40
2023-05-12T01:41:34.796Z,6.20
2023-05-12T01:44:22.069Z,8.10
2023-05-12T01:47:11.212Z,7.30
2023-05-12T01:49:58.908Z,9.00
2023-05-12T01:52:46.291Z,7.00
2023-05-12T01:55:34.564Z,6.70
2023-05-12T01:58:21.817Z,7.80
2023-05-12T02:01:08.635Z,6.40
2023-05-12T02:03:56.142Z,10.90
2023-05-12T02:06:42.987Z,5.80
2023-05-12T02:09:29.500Z,7.90
2023-05-12T02:12:19.201Z,8.20
2023-05-12T02:15:06.456Z,7.70
2023-05-12T02:17:54.575Z,6.40
2023-05-12T02:20:41.756Z,6.00
2023-05-12T02:23:28.745Z,7.30
2023-05-12T02:26:15.063Z,7.80
2023-05-12T02:29:01.799Z,5.90
2023-05-12T02:31:48.205Z,5.90
2023-05-12T02:34:35.678Z,5.60
2023-05-12T02:37:22.215Z,7.00
2023-05-12T02:40:09.621Z,9.50
2023-05-12T02:42:56.050Z,6.30
2023-05-12T02:45:43.011Z,6.00
2023-05-12T02:48:29.472Z,10.10
2023-05-12T02:51:15.833Z,9.00
2023-05-12T02:54:02.498Z,7.50
2023-05-12T02:56:48.970Z,7.20
2023-05-12T02:59:35.467Z,9.20
2023-05-12T03:02:21.853Z,11.90
2023-05-12T03:05:09.260Z,7.10
2023-05-12T03:07:56.116Z,7.80
2023-05-12T03:10:44.098Z,6.90
2023-05-12T03:13:30.649Z,6.70
2023-05-12T03:16:19.748Z,9.90
2023-05-12T03:19:06.760Z,7.00
2023-05-12T03:21:53.969Z,5.80
2023-05-12T03:24:40.442Z,6.20
2023-05-12T03:27:27.344Z,7.20
2023-05-12T03:30:14.735Z,7.90
2023-05-12T03:33:01.788Z,7.20
2023-05-12T03:35:48.262Z,9.80
2023-05-12T03:38:34.836Z,8.20
2023-05-12T03:41:22.192Z,8.60
2023-05-12T03:44:10.108Z,11.30
2023-05-12T03:46:56.812Z,10.00
2023-05-12T03:49:43.348Z,6.60
2023-05-12T03:52:29.699Z,5.00
2023-05-12T03:55:16.208Z,5.80
2023-05-12T03:58:02.791Z,8.70
2023-05-12T04:00:50.267Z,7.00
2023-05-12T04:03:36.732Z,6.90
2023-05-12T04:06:23.736Z,6.10
2023-05-12T04:09:10.313Z,8.00
2023-05-12T04:11:56.956Z,8.70
2023-05-12T04:14:43.938Z,8.70
2023-05-12T04:17:30.810Z,9.90
2023-05-12T04:20:17.713Z,7.30
2023-05-12T04:23:04.206Z,7.80
2023-05-12T04:25:51.106Z,9.30
2023-05-12T04:28:37.781Z,7.90
2023-05-12T04:31:24.655Z,6.60
2023-05-12T04:34:12.121Z,7.60
2023-05-12T04:36:58.922Z,6.20
2023-05-12T04:39:45.557Z,8.20
2023-05-12T04:42:32.095Z,7.10
2023-05-12T04:45:19.443Z,6.90
2023-05-12T04:48:06.700Z,8.30
2023-05-12T04:50:53.778Z,12.30
2023-05-12T04:53:40.042Z,8.20
2023-05-12T04:56:26.358Z,7.60
2023-05-12T04:59:15.785Z,7.50
2023-05-12T05:02:02.952Z,8.10
2023-05-12T05:04:49.565Z,9.80
2023-05-12T05:07:36.055Z,8.10
2023-05-12T05:10:22.369Z,6.00
2023-05-12T05:13:08.855Z,8.40
2023-05-12T05:15:56.142Z,7.00
2023-05-12T05:18:47.616Z,10.20
2023-05-12T05:21:34.687Z,7.40
2023-05-12T05:24:20.910Z,8.00
2023-05-12T05:27:07.429Z,5.50
2023-05-12T05:29:54.387Z,8.20
2023-05-12T05:32:41.092Z,8.40
2023-05-12T05:35:27.655Z,8.00
2023-05-12T05:38:14.712Z,5.50
2023-05-12T05:41:01.199Z,6.80
2023-05-12T05:43:47.774Z,7.80
2023-05-12T05:46:34.012Z,7.40
2023-05-12T05:49:20.460Z,9.20
2023-05-12T05:52:07.809Z,5.30
2023-05-12T05:54:54.311Z,9.90
2023-05-12T05:57:42.692Z,8.10
2023-05-12T06:00:29.502Z,8.80
2023-05-12T06:03:16.173Z,8.20
2023-05-12T06:06:03.441Z,6.50
2023-05-12T06:08:50.194Z,5.30
2023-05-12T06:11:36.514Z,7.50
2023-05-12T06:14:22.772Z,7.40
2023-05-12T06:17:09.211Z,7.50
2023-05-12T06:19:55.729Z,8.70
2023-05-12T06:22:42.384Z,9.40
2023-05-12T06:25:29.722Z,10.00
2023-05-12T06:28:15.995Z,6.60
2023-05-12T06:31:02.258Z,6.60
2023-05-12T06:33:49.731Z,7.30
2023-05-12T06:36:36.021Z,4.60
2023-05-12T06:39:22.447Z,7.00
2023-05-12T06:42:09.169Z,12.80
2023-05-12T06:45:01.719Z,7.10
2023-05-12T06:47:48.157Z,7.00
2023-05-12T06:50:34.873Z,5.40
2023-05-12T06:53:22.828Z,6.70
2023-05-12T06:56:16.909Z,6.30
2023-05-12T06:59:04.229Z,7.50
2023-05-12T07:01:50.898Z,7.00
2023-05-12T07:04:38.041Z,6.80
2023-05-12T07:07:24.740Z,9.90
2023-05-12T07:10:11.264Z,6.10
2023-05-12T07:12:57.690Z,6.20
2023-05-12T07:15:44.258Z,6.80
2023-05-12T07:18:31.989Z,5.20
2023-05-12T07:21:18.757Z,6.20
2023-05-12T07:24:06.407Z,5.90
2023-05-12T07:26:52.851Z,7.70
2023-05-12T07:29:39.269Z,4.40
2023-05-12T07:32:25.751Z,4.70
2023-05-12T07:35:12.559Z,6.50
2023-05-12T07:37:58.649Z,3.30
2023-05-12T07:40:45.414Z,6.20
2023-05-12T07:43:31.936Z,5.70
2023-05-12T07:46:18.347Z,5.50
2023-05-12T07:49:05.010Z,4.80
2023-05-12T07:51:51.857Z,4.20
2023-05-12T07:54:38.284Z,7.00
2023-05-12T07:57:24.777Z,5.00
2023-05-12T08:00:11.651Z,6.80
2023-05-12T08:05:48.075Z,9.70
2023-05-12T08:08:34.967Z,6.20
2023-05-12T08:11:22.012Z,4.20
2023-05-12T08:14:08.476Z,4.60
2023-05-12T08:16:55.081Z,6.90
2023-05-12T08:19:41.957Z,4.90
2023-05-12T08:22:28.536Z,4.20
2023-05-12T08:25:15.396Z,4.10
2023-05-12T08:28:02.099Z,7.00
2023-05-12T08:30:48.888Z,4.30
2023-05-12T08:33:36.341Z,5.30
2023-05-12T08:36:22.970Z,3.10
2023-05-12T08:39:12.739Z,4.60
2023-05-12T08:42:22.194Z,3.60
2023-05-12T08:45:10.632Z,3.00
2023-05-12T08:47:58.667Z,4.50
2023-05-12T08:50:47.303Z,4.10
2023-05-12T08:53:36.602Z,5.00
2023-05-12T08:59:13.958Z,4.60
2023-05-12T09:02:04.540Z,3.00
2023-05-12T09:04:52.403Z,5.70
2023-05-12T09:07:43.536Z,2.80
2023-05-12T09:10:34.636Z,6.00
2023-05-12T09:13:54.932Z,8.00
2023-05-12T09:19:30.350Z,5.00
2023-05-12T09:22:18.860Z,5.60
2023-05-12T09:25:19.330Z,5.40
2023-05-12T09:28:06.274Z,4.00
2023-05-12T09:30:52.670Z,3.20
2023-05-12T09:33:39.027Z,4.20
2023-05-12T09:36:25.891Z,6.60
2023-05-12T09:39:13.015Z,6.20
2023-05-12T09:41:59.856Z,6.00
2023-05-12T09:44:47.217Z,4.20
2023-05-12T09:47:36.278Z,6.80
2023-05-12T09:50:23.218Z,2.50
2023-05-12T09:53:10.020Z,5.70
2023-05-12T09:55:56.696Z,3.30
2023-05-12T09:58:48.461Z,3.30
2023-05-12T10:01:35.909Z,6.90
2023-05-12T10:04:22.680Z,3.40
2023-05-12T10:07:13.058Z,3.80
2023-05-12T10:10:02.432Z,4.00
2023-05-12T10:12:49.739Z,3.00
2023-05-12T10:15:36.883Z,5.70
2023-05-12T10:18:24.838Z,4.40
2023-05-12T10:21:12.992Z,3.90
2023-05-12T10:24:00.851Z,2.40
2023-05-12T10:26:47.587Z,6.10
2023-05-12T10:29:35.020Z,8.00
2023-05-12T10:32:21.634Z,4.10
2023-05-12T10:35:09.378Z,2.70
2023-05-12T10:37:56.104Z,3.90
2023-05-12T10:40:58.865Z,5.00
2023-05-12T10:43:49.571Z,3.50
2023-05-12T10:46:37.184Z,4.20
2023-05-12T10:49:33.330Z,6.80
2023-05-12T10:55:12.574Z,4.00
2023-05-12T10:58:13.238Z,2.90
2023-05-12T11:01:07.411Z,3.00
2023-05-12T11:03:59.035Z,2.60
2023-05-12T11:06:46.928Z,5.00
2023-05-12T11:09:46.814Z,3.60
2023-05-12T11:12:43.448Z,4.00
2023-05-12T11:15:30.737Z,6.20
2023-05-12T11:18:21.790Z,5.20
2023-05-12T11:21:12.219Z,8.40
2023-05-12T11:24:00.353Z,3.00
2023-05-12T11:26:51.766Z,5.80
2023-05-12T11:29:41.392Z,5.20
2023-05-12T11:32:29.628Z,3.60
2023-05-12T11:35:18.147Z,4.40
2023-05-12T11:38:15.775Z,4.80
2023-05-12T11:41:02.116Z,6.70
2023-05-12T11:43:48.446Z,3.60
2023-05-12T11:46:35.103Z,7.00
2023-05-12T11:49:21.707Z,2.90
2023-05-12T11:52:08.157Z,7.20
2023-05-12T11:55:00.176Z,3.90
2023-05-12T11:57:56.878Z,5.60
2023-05-12T12:00:43.295Z,4.50
2023-05-12T12:03:29.589Z,5.10
2023-05-12T12:06:17.178Z,4.30
2023-05-12T12:09:03.633Z,6.30
2023-05-12T12:11:50.304Z,3.50
2023-05-12T12:14:38.201Z,7.40
2023-05-12T12:17:30.782Z,4.90
2023-05-12T12:20:18.806Z,5.40
2023-05-12T12:23:05.533Z,5.80
2023-05-12T12:25:52.096Z,6.80
2023-05-12T12:28:38.559Z,5.40
2023-05-12T12:31:24.864Z,9.20
2023-05-12T12:34:11.517Z,4.60
2023-05-12T12:36:57.761Z,4.90
2023-05-12T12:39:44.098Z,4.70
2023-05-12T12:42:31.068Z,3.50
2023-05-12T12:45:20.112Z,5.60
2023-05-12T12:48:09.167Z,3.80
2023-05-12T12:50:56.063Z,7.30
2023-05-12T12:53:45.768Z,4.80
2023-05-12T12:56:32.240Z,5.10
2023-05-12T12:59:18.695Z,4.10
2023-05-12T13:02:05.303Z,7.90
2023-05-12T13:04:52.148Z,6.70
2023-05-12T13:07:38.197Z,7.80
2023-05-12T13:10:25.990Z,6.10
2023-05-12T13:13:12.636Z,5.70
2023-05-12T13:15:58.984Z,4.20
2023-05-12T13:18:46.104Z,5.90
2023-05-12T13:21:32.588Z,8.60
2023-05-12T13:24:19.020Z,3.90
2023-05-12T13:27:08.442Z,4.60
2023-05-12T13:29:55.247Z,6.90
2023-05-12T13:32:41.810Z,4.90
2023-05-12T13:35:28.558Z,6.70
2023-05-12T13:38:15.280Z,3.80
2023-05-12T13:41:02.250Z,3.50
2023-05-12T13:43:48.857Z,5.90
2023-05-12T13:46:35.820Z,7.70
2023-05-12T13:49:22.352Z,3.70
2023-05-12T13:52:08.649Z,7.50
2023-05-12T13:54:55.247Z,3.10
2023-05-12T13:57:41.604Z,7.90
2023-05-12T14:00:29.938Z,5.00
2023-05-12T14:03:16.735Z,11.10
2023-05-12T14:06:04.035Z,4.50
2023-05-12T14:08:50.073Z,4.90
2023-05-12T14:11:37.049Z,3.90
2023-05-12T14:14:23.747Z,3.20
2023-05-12T14:17:10.269Z,4.00
2023-05-12T14:19:56.799Z,5.60
2023-05-12T14:22:43.128Z,4.60
2023-05-12T14:25:30.878Z,4.50
2023-05-12T14:28:17.884Z,3.50
2023-05-12T14:31:04.290Z,5.30
2023-05-12T14:33:50.530Z,5.20
2023-05-12T14:36:36.748Z,5.40
2023-05-12T14:39:23.010Z,4.10
2023-05-12T14:42:09.554Z,5.30
2023-05-12T14:44:56.694Z,4.50
2023-05-12T14:47:43.289Z,5.90
2023-05-12T14:50:30.038Z,4.70
2023-05-12T14:53:16.582Z,4.30
2023-05-12T14:56:02.724Z,6.50
2023-05-12T14:58:49.290Z,3.70
2023-05-12T15:01:35.781Z,4.60
2023-05-12T15:04:22.477Z,4.50
2023-05-12T15:07:09.136Z,3.70
2023-05-12T15:09:55.840Z,2.80
2023-05-12T15:12:42.366Z,5.80
2023-05-12T15:15:29.567Z,5.20
2023-05-12T15:18:16.178Z,4.10
2023-05-12T15:21:02.523Z,5.00
2023-05-12T15:23:49.270Z,4.60
2023-05-12T15:26:39.705Z,4.70
2023-05-12T15:29:27.216Z,5.00
2023-05-12T15:32:13.752Z,5.70
2023-05-12T15:35:00.048Z,4.70
2023-05-12T15:37:46.668Z,3.40
2023-05-12T15:40:33.235Z,5.60
2023-05-12T15:43:19.815Z,3.50
2023-05-12T15:46:06.645Z,5.10
2023-05-12T15:48:52.995Z,7.60
2023-05-12T15:51:39.847Z,5.20
2023-05-12T15:54:26.636Z,3.90
2023-05-12T15:57:13.803Z,3.20
2023-05-12T16:00:00.294Z,7.00
2023-05-12T16:02:47.103Z,3.40
2023-05-12T16:05:37.892Z,4.20
2023-05-12T16:08:24.381Z,4.80
2023-05-12T16:11:11.122Z,3.10
2023-05-12T16:13:57.820Z,5.20
2023-05-12T16:16:48.251Z,4.80
2023-05-12T16:19:34.910Z,4.10
2023-05-12T16:22:21.818Z,6.30
2023-05-12T16:25:08.958Z,3.20
2023-05-12T16:27:55.883Z,4.30
2023-05-12T16:30:42.493Z,4.30
2023-05-12T16:33:29.901Z,3.40
2023-05-12T16:36:17.626Z,4.30
2023-05-12T16:39:04.288Z,4.00
2023-05-12T16:41:50.920Z,3.00
2023-05-12T16:44:37.288Z,3.80
2023-05-12T16:47:24.127Z,3.60
2023-05-12T16:50:11.721Z,4.30
2023-05-12T16:52:58.356Z,4.00
2023-05-12T16:55:44.898Z,5.20
2023-05-12T16:58:31.589Z,4.10
2023-05-12T17:01:18.353Z,4.90
2023-05-12T17:04:06.830Z,3.50
2023-05-12T17:09:40.278Z,6.80
2023-05-12T17:12:26.994Z,4.80
2023-05-12T17:15:13.454Z,3.60
2023-05-12T17:18:00.123Z,3.70
2023-05-12T17:20:46.438Z,4.30
2023-05-12T17:23:32.908Z,6.70
2023-05-12T17:26:19.294Z,6.00
2023-05-12T17:29:05.584Z,9.00
2023-05-12T17:31:51.962Z,7.30
2023-05-12T17:34:38.566Z,4.60
2023-05-12T17:37:25.463Z,4.30
2023-05-12T17:40:18.187Z,4.20
2023-05-12T17:43:04.789Z,3.70
2023-05-12T17:45:51.591Z,6.00
2023-05-12T17:48:38.745Z,4.30
2023-05-12T17:51:25.775Z,6.70
2023-05-12T17:54:12.508Z,3.90
2023-05-12T17:56:59.370Z,4.70
2023-05-12T17:59:45.646Z,5.00
2023-05-12T18:02:32.202Z,4.70
2023-05-12T18:05:18.631Z,6.20
2023-05-12T18:08:06.655Z,7.40
2023-05-12T18:10:52.942Z,7.50
2023-05-12T18:13:39.458Z,4.90
2023-05-12T18:16:29.365Z,6.60
2023-05-12T18:19:16.315Z,4.90
2023-05-12T18:22:02.818Z,4.90
2023-05-12T18:24:50.896Z,5.30
2023-05-12T18:27:37.450Z,6.50
2023-05-12T18:30:23.772Z,4.50
2023-05-12T18:33:10.522Z,4.50
2023-05-12T18:35:57.147Z,7.90
2023-05-12T18:38:44.364Z,6.80
2023-05-12T18:41:31.487Z,6.20
2023-05-12T18:44:17.758Z,5.50
2023-05-12T18:47:04.564Z,4.90
2023-05-12T18:49:51.349Z,4.40
2023-05-12T18:52:37.985Z,5.70
2023-05-12T18:55:24.637Z,4.90
2023-05-12T18:58:11.327Z,4.90
2023-05-12T19:00:57.510Z,3.50
2023-05-12T19:03:44.132Z,5.30
2023-05-12T19:06:31.181Z,6.10
2023-05-12T19:09:17.511Z,4.70
2023-05-12T19:12:06.136Z,7.50
2023-05-12T19:14:52.626Z,6.40
2023-05-12T19:17:39.101Z,4.70
2023-05-12T19:20:25.838Z,8.30
2023-05-12T19:23:12.198Z,7.40
2023-05-12T19:25:59.187Z,8.00
2023-05-12T19:28:45.739Z,8.60
2023-05-12T19:31:34.202Z,7.00
2023-05-12T19:34:21.585Z,4.60
2023-05-12T19:37:08.583Z,7.20
2023-05-12T19:39:54.957Z,5.80
2023-05-12T19:42:42.497Z,10.40
2023-05-12T19:45:29.220Z,7.30
2023-05-12T19:48:15.795Z,11.60
2023-05-12T19:51:02.185Z,9.80
2023-05-12T19:53:48.315Z,8.00
2023-05-12T19:56:34.929Z,9.30
2023-05-12T19:59:21.244Z,9.20
2023-05-12T20:02:11.049Z,8.00
2023-05-12T20:05:01.527Z,10.20
2023-05-12T20:07:48.697Z,9.40
2023-05-12T20:10:35.334Z,7.40
2023-05-12T20:13:21.687Z,6.70
2023-05-12T20:16:08.056Z,9.80
2023-05-12T20:18:54.871Z,9.60
2023-05-12T20:21:41.680Z,7.40
2023-05-12T20:24:28.456Z,9.30
2023-05-12T20:27:15.074Z,9.90
2023-05-12T20:30:01.691Z,9.70
2023-05-12T20:32:50.612Z,8.00
2023-05-12T20:35:37.100Z,10.10
2023-05-12T20:38:24.397Z,8.70
2023-05-12T20:41:10.727Z,8.80
2023-05-12T20:43:57.117Z,11.70
2023-05-12T20:46:43.608Z,11.20
2023-05-12T20:49:30.385Z,10.30
2023-05-12T20:52:16.652Z,12.30
2023-05-12T20:55:03.558Z,10.70
2023-05-12T20:57:50.068Z,8.70
2023-05-12T21:00:37.225Z,9.30
2023-05-12T21:03:24.381Z,10.10
2023-05-12T21:06:12.301Z,7.80
2023-05-12T21:08:58.743Z,11.30
2023-05-12T21:11:45.463Z,10.70
2023-05-12T21:14:44.174Z,9.90
2023-05-12T21:17:30.344Z,11.60
2023-05-12T21:20:16.884Z,15.00
2023-05-12T21:23:03.438Z,11.30
2023-05-12T21:25:53.188Z,11.40
2023-05-12T21:28:39.658Z,9.40
2023-05-12T21:31:26.395Z,19.10
2023-05-12T21:34:12.579Z,12.40
2023-05-12T21:37:00.067Z,9.70
2023-05-12T21:39:46.365Z,10.60
2023-05-12T21:42:32.818Z,12.00
2023-05-12T21:45:21.481Z,9.40
2023-05-12T21:48:08.587Z,12.70
2023-05-12T21:51:09.166Z,9.70
2023-05-12T21:53:56.127Z,8.10
2023-05-12T21:56:45.053Z,11.80
2023-05-12T21:59:33.111Z,9.50
2023-05-12T22:02:26.884Z,11.80
2023-05-12T22:05:14.653Z,12.30
2023-05-12T22:08:00.870Z,9.10
2023-05-12T22:10:49.887Z,9.40
2023-05-12T22:13:37.478Z,7.80
2023-05-12T22:16:31.149Z,11.30
2023-05-12T22:19:25.206Z,9.80
2023-05-12T22:22:12.727Z,10.70
2023-05-12T22:24:59.707Z,9.10
2023-05-12T22:27:46.277Z,9.90
2023-05-12T22:30:33.193Z,10.60
2023-05-12T22:33:19.590Z,9.70
2023-05-12T22:36:07.918Z,8.30
2023-05-12T22:38:55.386Z,11.10
2023-05-12T22:41:44.637Z,11.20
2023-05-12T22:44:31.377Z,11.50
2023-05-12T22:47:17.997Z,11.30
2023-05-12T22:50:06.779Z,9.60
2023-05-12T22:52:57.475Z,12.30
2023-05-12T22:55:47.254Z,10.50
2023-05-12T22:58:33.704Z,8.60
2023-05-12T23:01:19.989Z,9.50
2023-05-12T23:04:06.799Z,9.70
2023-05-12T23:06:53.147Z,10.20
2023-05-12T23:09:39.570Z,12.70
2023-05-12T23:12:25.976Z,9.80
2023-05-12T23:15:12.359Z,10.90
2023-05-12T23:17:58.744Z,8.10
2023-05-12T23:20:45.825Z,9.50
2023-05-12T23:23:33.239Z,7.80
2023-05-12T23:26:19.831Z,7.80
2023-05-12T23:29:06.550Z,8.60
2023-05-12T23:31:52.776Z,7.10
2023-05-12T23:34:40.620Z,8.10
2023-05-12T23:37:27.092Z,8.90
2023-05-12T23:40:13.281Z,8.20
2023-05-12T23:42:59.904Z,7.90
2023-05-12T23:45:46.625Z,10.10
2023-05-12T23:48:33.249Z,9.50
2023-05-12T23:51:19.934Z,10.20
2023-05-12T23:54:06.573Z,11.10
2023-05-12T23:56:52.748Z,7.50
2023-05-12T23:59:39.318Z,10.00
